createdAt,value
2023-05-05T16:02:12.802Z,950.33
2023-05-05T16:03:12.690Z,950.27
2023-05-05T16:04:12.588Z,950.32
2023-05-05T16:05:12.586Z,950.35
2023-05-05T16:06:12.614Z,950.39
2023-05-05T16:07:12.572Z,950.41
2023-05-05T16:08:12.544Z,950.35
2023-05-05T16:09:12.542Z,950.38
2023-05-05T16:10:12.519Z,950.43
2023-05-05T16:11:12.768Z,950.38
2023-05-05T16:12:12.494Z,950.35
2023-05-05T16:13:12.547Z,950.38
2023-05-05T16:14:12.479Z,950.37
2023-05-05T16:15:12.461Z,950.36
2023-05-05T16:16:12.506Z,950.28
2023-05-05T16:17:12.444Z,950.32
2023-05-05T16:18:12.491Z,950.39
2023-05-05T16:19:12.418Z,950.34
2023-05-05T16:20:12.398Z,950.29
2023-05-05T16:21:12.409Z,950.33
2023-05-05T16:22:12.414Z,950.36
2023-05-05T16:23:12.376Z,950.30
2023-05-05T16:24:12.363Z,950.27
2023-05-05T16:25:12.347Z,950.26
2023-05-05T16:26:12.334Z,950.27
2023-05-05T16:27:12.348Z,950.34
2023-05-05T16:28:12.322Z,950.33
2023-05-05T16:29:12.328Z,950.32
2023-05-05T16:30:12.294Z,950.31
2023-05-05T16:31:12.450Z,950.32
2023-05-05T16:32:12.275Z,950.36
2023-05-05T16:33:12.292Z,950.34
2023-05-05T16:34:12.334Z,950.36
2023-05-05T16:35:12.259Z,950.33
2023-05-05T16:36:12.244Z,950.39
2023-05-05T16:37:12.220Z,950.35
2023-05-05T16:38:12.199Z,950.39
2023-05-05T16:39:12.195Z,950.36
2023-05-05T16:40:12.206Z,950.42
2023-05-05T16:41:12.192Z,950.43
2023-05-05T16:42:12.153Z,950.38
2023-05-05T16:43:12.149Z,950.43
2023-05-05T16:44:12.136Z,950.39
2023-05-05T16:45:12.237Z,950.42
2023-05-05T16:46:12.124Z,950.41
2023-05-05T16:47:12.098Z,950.42
2023-05-05T16:48:12.183Z,950.43
2023-05-05T16:49:12.104Z,950.37
2023-05-05T16:50:12.301Z,950.43
2023-05-05T16:51:12.049Z,950.39
2023-05-05T16:52:12.034Z,950.40
2023-05-05T16:53:12.043Z,950.43
2023-05-05T16:54:12.026Z,950.47
2023-05-05T16:55:12.043Z,950.47
2023-05-05T16:56:12.016Z,950.53
2023-05-05T16:57:12.014Z,950.48
2023-05-05T16:58:11.968Z,950.54
2023-05-05T16:59:11.972Z,950.49
2023-05-05T17:00:11.968Z,950.48
2023-05-05T17:01:12.012Z,950.46
2023-05-05T17:02:11.940Z,950.45
2023-05-05T17:03:11.920Z,950.48
2023-05-05T17:04:11.919Z,950.47
2023-05-05T17:05:12.188Z,950.52
2023-05-05T17:06:11.970Z,950.50
2023-05-05T17:07:11.892Z,950.49
2023-05-05T17:08:11.858Z,950.50
2023-05-05T17:09:11.853Z,950.47
2023-05-05T17:10:11.870Z,950.46
2023-05-05T17:11:12.008Z,950.45
2023-05-05T17:12:11.816Z,950.45
2023-05-05T17:13:11.916Z,950.43
2023-05-05T17:14:11.826Z,950.38
2023-05-05T17:15:11.852Z,950.40
2023-05-05T17:16:11.804Z,950.38
2023-05-05T17:17:11.859Z,950.38
2023-05-05T17:18:11.767Z,950.38
2023-05-05T17:19:11.750Z,950.39
2023-05-05T17:20:11.736Z,950.39
2023-05-05T17:21:11.719Z,950.38
2023-05-05T17:22:11.808Z,950.36
2023-05-05T17:23:11.716Z,950.39
2023-05-05T17:24:11.716Z,950.39
2023-05-05T17:25:11.890Z,950.40
2023-05-05T17:26:11.644Z,950.38
2023-05-05T17:27:11.678Z,950.43
2023-05-05T17:28:11.645Z,950.39
2023-05-05T17:29:13.073Z,950.37
2023-05-05T17:30:11.611Z,950.46
2023-05-05T17:31:11.618Z,950.49
2023-05-05T17:32:11.606Z,950.45
2023-05-05T17:33:11.603Z,950.44
2023-05-05T17:34:11.583Z,950.43
2023-05-05T17:35:11.694Z,950.40
2023-05-05T17:36:11.542Z,950.39
2023-05-05T17:37:11.526Z,950.39
2023-05-05T17:38:11.599Z,950.39
2023-05-05T17:39:11.520Z,950.36
2023-05-05T17:40:11.506Z,950.37
2023-05-05T17:41:11.508Z,950.35
2023-05-05T17:42:11.507Z,950.37
2023-05-05T17:43:11.460Z,950.37
2023-05-05T17:44:11.445Z,950.36
2023-05-05T17:45:11.816Z,950.39
2023-05-05T17:46:11.509Z,950.36
2023-05-05T17:47:11.426Z,950.37
2023-05-05T17:48:11.429Z,950.34
2023-05-05T17:49:11.388Z,950.32
2023-05-05T17:50:11.399Z,950.33
2023-05-05T17:51:11.395Z,950.30
2023-05-05T17:52:11.349Z,950.30
2023-05-05T17:53:11.356Z,950.34
2023-05-05T17:54:11.423Z,950.34
2023-05-05T17:55:11.628Z,950.28
2023-05-05T17:56:11.326Z,950.32
2023-05-05T17:57:11.305Z,950.30
2023-05-05T17:58:11.303Z,950.34
2023-05-05T17:59:11.284Z,950.29
2023-05-05T18:00:11.273Z,950.27
2023-05-05T18:01:11.293Z,950.30
2023-05-05T18:02:11.259Z,950.31
2023-05-05T18:03:11.393Z,950.31
2023-05-05T18:04:11.221Z,950.35
2023-05-05T18:05:11.506Z,950.35
2023-05-05T18:06:11.206Z,950.35
2023-05-05T18:07:11.191Z,950.40
2023-05-05T18:08:11.189Z,950.35
2023-05-05T18:09:11.420Z,950.36
2023-05-05T18:10:11.318Z,950.38
2023-05-05T18:11:11.141Z,950.37
2023-05-05T18:12:11.145Z,950.30
2023-05-05T18:13:11.262Z,950.38
2023-05-05T18:14:11.155Z,950.38
2023-05-05T18:15:11.467Z,950.38
2023-05-05T18:16:11.159Z,950.40
2023-05-05T18:17:11.103Z,950.37
2023-05-05T18:18:11.112Z,950.41
2023-05-05T18:19:11.071Z,950.41
2023-05-05T18:20:11.066Z,950.41
2023-05-05T18:21:11.033Z,950.44
2023-05-05T18:22:11.035Z,950.42
2023-05-05T18:23:11.018Z,950.40
2023-05-05T18:24:19.207Z,950.48
2023-05-05T18:25:12.249Z,950.49
2023-05-05T18:26:11.144Z,950.52
2023-05-05T18:27:10.974Z,950.48
2023-05-05T18:28:10.961Z,950.47
2023-05-05T18:29:10.946Z,950.50
2023-05-05T18:30:10.955Z,950.55
2023-05-05T18:31:10.949Z,950.54
2023-05-05T18:32:10.926Z,950.46
2023-05-05T18:33:10.979Z,950.48
2023-05-05T18:34:10.893Z,950.41
2023-05-05T18:35:11.187Z,950.44
2023-05-05T18:36:10.884Z,950.47
2023-05-05T18:37:10.863Z,950.47
2023-05-05T18:38:10.853Z,950.46
2023-05-05T18:39:10.843Z,950.53
2023-05-05T18:40:10.815Z,950.52
2023-05-05T18:41:10.841Z,950.49
2023-05-05T18:42:11.112Z,950.55
2023-05-05T18:43:10.783Z,950.52
2023-05-05T18:44:10.778Z,950.56
2023-05-05T18:45:10.974Z,950.53
2023-05-05T18:46:10.760Z,950.52
2023-05-05T18:47:10.821Z,950.57
2023-05-05T18:48:10.736Z,950.53
2023-05-05T18:49:10.718Z,950.55
2023-05-05T18:50:10.705Z,950.54
2023-05-05T18:51:10.687Z,950.54
2023-05-05T18:52:10.695Z,950.59
2023-05-05T18:53:10.688Z,950.58
2023-05-05T18:54:10.652Z,950.56
2023-05-05T18:55:10.811Z,950.55
2023-05-05T18:56:10.629Z,950.53
2023-05-05T18:57:10.634Z,950.55
2023-05-05T18:58:10.772Z,950.57
2023-05-05T18:59:10.599Z,950.56
2023-05-05T19:00:10.623Z,950.56
2023-05-05T19:01:10.610Z,950.53
2023-05-05T19:02:10.585Z,950.58
2023-05-05T19:03:10.560Z,950.60
2023-05-05T19:04:22.623Z,950.58
2023-05-05T19:05:11.700Z,950.58
2023-05-05T19:06:10.513Z,950.59
2023-05-05T19:07:12.908Z,950.55
2023-05-05T19:08:11.519Z,950.54
2023-05-05T19:09:10.487Z,950.63
2023-05-05T19:10:10.515Z,950.60
2023-05-05T19:11:10.463Z,950.58
2023-05-05T19:12:10.469Z,950.58
2023-05-05T19:13:10.497Z,950.58
2023-05-05T19:14:10.511Z,950.58
2023-05-05T19:15:10.606Z,950.56
2023-05-05T19:16:10.482Z,950.54
2023-05-05T19:17:10.406Z,950.52
2023-05-05T19:18:10.392Z,950.61
2023-05-05T19:19:10.368Z,950.57
2023-05-05T19:20:10.356Z,950.54
2023-05-05T19:21:10.368Z,950.52
2023-05-05T19:22:10.341Z,950.54
2023-05-05T19:23:10.325Z,950.47
2023-05-05T19:24:10.320Z,950.42
2023-05-05T19:25:10.543Z,950.44
2023-05-05T19:26:10.279Z,950.37
2023-05-05T19:27:10.261Z,950.38
2023-05-05T19:28:11.128Z,950.39
2023-05-05T19:29:10.257Z,950.32
2023-05-05T19:30:10.324Z,950.38
2023-05-05T19:31:10.240Z,950.36
2023-05-05T19:32:10.261Z,950.33
2023-05-05T19:33:10.369Z,950.31
2023-05-05T19:34:10.200Z,950.31
2023-05-05T19:35:10.698Z,950.27
2023-05-05T19:36:10.163Z,950.27
2023-05-05T19:37:10.161Z,950.25
2023-05-05T19:38:10.180Z,950.26
2023-05-05T19:39:10.147Z,950.26
2023-05-05T19:40:10.418Z,950.34
2023-05-05T19:41:10.104Z,950.29
2023-05-05T19:42:10.119Z,950.30
2023-05-05T19:43:10.095Z,950.30
2023-05-05T19:44:10.074Z,950.27
2023-05-05T19:45:10.060Z,950.25
2023-05-05T19:46:10.402Z,950.22
2023-05-05T19:47:11.030Z,950.27
2023-05-05T19:48:10.032Z,950.25
2023-05-05T19:49:10.042Z,950.24
2023-05-05T19:50:10.201Z,950.20
2023-05-05T19:51:10.018Z,950.25
2023-05-05T19:52:09.983Z,950.23
2023-05-05T19:53:09.986Z,950.24
2023-05-05T19:54:09.957Z,950.20
2023-05-05T19:55:10.042Z,950.19
2023-05-05T19:56:09.944Z,950.20
2023-05-05T19:57:09.928Z,950.18
2023-05-05T19:58:09.917Z,950.13
2023-05-05T19:59:09.914Z,950.18
2023-05-05T20:00:10.135Z,950.15
2023-05-05T20:01:09.912Z,950.10
2023-05-05T20:02:09.996Z,950.15
2023-05-05T20:03:09.919Z,950.04
2023-05-05T20:04:09.973Z,950.09
2023-05-05T20:05:09.871Z,950.09
2023-05-05T20:06:09.832Z,950.07
2023-05-05T20:07:09.818Z,950.05
2023-05-05T20:08:09.815Z,950.09
2023-05-05T20:09:09.831Z,950.02
2023-05-05T20:10:10.101Z,950.04
2023-05-05T20:11:09.789Z,950.05
2023-05-05T20:12:09.764Z,950.05
2023-05-05T20:13:09.817Z,950.05
2023-05-05T20:14:09.809Z,949.98
2023-05-05T20:15:09.840Z,950.00
2023-05-05T20:16:09.765Z,949.99
2023-05-05T20:17:09.706Z,949.97
2023-05-05T20:18:09.801Z,949.94
2023-05-05T20:19:09.749Z,949.91
2023-05-05T20:20:09.669Z,949.93
2023-05-05T20:21:09.684Z,949.94
2023-05-05T20:22:09.664Z,949.91
2023-05-05T20:23:09.637Z,949.84
2023-05-05T20:24:09.626Z,949.93
2023-05-05T20:25:09.640Z,949.93
2023-05-05T20:26:09.629Z,949.91
2023-05-05T20:27:09.597Z,949.88
2023-05-05T20:28:09.586Z,949.86
2023-05-05T20:29:09.599Z,949.89
2023-05-05T20:30:09.894Z,949.84
2023-05-05T20:31:09.590Z,949.90
2023-05-05T20:32:09.559Z,949.93
2023-05-05T20:33:09.619Z,949.95
2023-05-05T20:34:09.612Z,949.94
2023-05-05T20:35:09.511Z,949.94
2023-05-05T20:36:09.532Z,949.87
2023-05-05T20:37:10.604Z,949.91
2023-05-05T20:38:09.482Z,949.87
2023-05-05T20:39:09.468Z,949.88
2023-05-05T20:40:09.650Z,949.84
2023-05-05T20:41:09.465Z,949.82
2023-05-05T20:42:09.427Z,949.85
2023-05-05T20:43:09.412Z,949.78
2023-05-05T20:44:09.423Z,949.78
2023-05-05T20:45:09.406Z,949.84
2023-05-05T20:46:10.864Z,949.81
2023-05-05T20:47:09.463Z,949.83
2023-05-05T20:48:09.401Z,949.79
2023-05-05T20:49:09.350Z,949.80
2023-05-05T20:50:16.480Z,949.82
2023-05-05T20:51:09.323Z,949.83
2023-05-05T20:52:09.339Z,949.77
2023-05-05T20:53:09.306Z,949.83
2023-05-05T20:54:09.291Z,949.86
2023-05-05T20:55:09.282Z,949.83
2023-05-05T20:56:09.409Z,949.84
2023-05-05T20:57:09.305Z,949.86
2023-05-05T20:58:09.267Z,949.78
2023-05-05T20:59:09.234Z,949.80
2023-05-05T21:00:09.463Z,949.81
2023-05-05T21:01:09.280Z,949.83
2023-05-05T21:02:09.350Z,949.80
2023-05-05T21:03:09.252Z,949.83
2023-05-05T21:04:09.172Z,949.83
2023-05-05T21:05:09.168Z,949.85
2023-05-05T21:06:09.290Z,949.85
2023-05-05T21:07:09.172Z,949.83
2023-05-05T21:08:09.127Z,949.85
2023-05-05T21:09:09.143Z,949.84
2023-05-05T21:10:09.521Z,949.84
2023-05-05T21:11:09.108Z,949.87
2023-05-05T21:12:09.129Z,949.84
2023-05-05T21:13:09.136Z,949.88
2023-05-05T21:14:09.070Z,949.88
2023-05-05T21:15:09.294Z,949.85
2023-05-05T21:16:09.074Z,949.85
2023-05-05T21:17:09.051Z,949.81
2023-05-05T21:18:09.078Z,949.83
2023-05-05T21:19:09.001Z,949.83
2023-05-05T21:20:09.242Z,949.81
2023-05-05T21:21:08.996Z,949.81
2023-05-05T21:22:09.063Z,949.81
2023-05-05T21:23:08.965Z,949.80
2023-05-05T21:24:08.948Z,949.80
2023-05-05T21:25:08.938Z,949.78
2023-05-05T21:26:08.968Z,949.79
2023-05-05T21:27:08.920Z,949.79
2023-05-05T21:28:08.903Z,949.76
2023-05-05T21:29:08.902Z,949.78
2023-05-05T21:30:11.065Z,949.81
2023-05-05T21:32:08.929Z,949.79
2023-05-05T21:33:08.957Z,949.78
2023-05-05T21:34:08.831Z,949.78
2023-05-05T21:35:08.840Z,949.75
2023-05-05T21:36:08.843Z,949.80
2023-05-05T21:37:08.813Z,949.77
2023-05-05T21:38:08.906Z,949.76
2023-05-05T21:39:08.780Z,949.79
2023-05-05T21:40:08.973Z,949.78
2023-05-05T21:41:08.771Z,949.80
2023-05-05T21:42:08.749Z,949.81
2023-05-05T21:43:08.751Z,949.82
2023-05-05T21:44:08.725Z,949.83
2023-05-05T21:45:08.728Z,949.86
2023-05-05T21:46:08.775Z,949.81
2023-05-05T21:47:08.697Z,949.86
2023-05-05T21:48:08.744Z,949.84
2023-05-05T21:49:08.661Z,949.92
2023-05-05T21:50:08.858Z,949.87
2023-05-05T21:51:08.661Z,949.87
2023-05-05T21:52:08.639Z,949.96
2023-05-05T21:53:08.629Z,949.92
2023-05-05T21:54:08.762Z,949.94
2023-05-05T21:55:08.613Z,949.93
2023-05-05T21:56:08.585Z,949.99
2023-05-05T21:57:08.586Z,949.95
2023-05-05T21:58:08.581Z,950.02
2023-05-05T21:59:08.555Z,950.01
2023-05-05T22:00:08.837Z,950.02
2023-05-05T22:01:08.605Z,950.05
2023-05-05T22:02:08.529Z,950.09
2023-05-05T22:03:08.644Z,950.06
2023-05-05T22:04:08.513Z,950.06
2023-05-05T22:05:08.513Z,950.10
2023-05-05T22:06:08.490Z,950.15
2023-05-05T22:07:08.470Z,950.21
2023-05-05T22:08:08.466Z,950.30
2023-05-05T22:09:08.447Z,950.49
2023-05-05T22:10:08.849Z,950.49
2023-05-05T22:11:08.439Z,950.47
2023-05-05T22:12:08.413Z,950.47
2023-05-05T22:13:08.449Z,950.47
2023-05-05T22:14:08.399Z,950.49
2023-05-05T22:15:08.526Z,950.46
2023-05-05T22:16:08.417Z,950.43
2023-05-05T22:17:08.371Z,950.43
2023-05-05T22:18:08.400Z,950.40
2023-05-05T22:19:08.330Z,950.39
2023-05-05T22:20:08.555Z,950.45
2023-05-05T22:21:08.310Z,950.42
2023-05-05T22:22:08.302Z,950.43
2023-05-05T22:23:08.318Z,950.45
2023-05-05T22:24:08.280Z,950.41
2023-05-05T22:25:08.526Z,950.38
2023-05-05T22:26:08.348Z,950.34
2023-05-05T22:27:08.255Z,950.39
2023-05-05T22:28:08.227Z,950.44
2023-05-05T22:29:08.215Z,950.43
2023-05-05T22:30:08.233Z,950.41
2023-05-05T22:31:08.260Z,950.40
2023-05-05T22:32:08.200Z,950.45
2023-05-05T22:33:08.269Z,950.41
2023-05-05T22:34:08.162Z,950.45
2023-05-05T22:35:08.521Z,950.54
2023-05-05T22:36:08.142Z,950.49
2023-05-05T22:37:08.145Z,950.52
2023-05-05T22:38:08.115Z,950.55
2023-05-05T22:39:08.104Z,950.55
2023-05-05T22:40:08.106Z,950.57
2023-05-05T22:41:08.084Z,950.57
2023-05-05T22:42:08.399Z,950.58
2023-05-05T22:43:08.080Z,950.59
2023-05-05T22:44:08.048Z,950.59
2023-05-05T22:45:08.324Z,950.62
2023-05-05T22:46:08.052Z,950.57
2023-05-05T22:47:08.049Z,950.58
2023-05-05T22:48:08.050Z,950.60
2023-05-05T22:49:08.017Z,950.53
2023-05-05T22:50:07.999Z,950.53
2023-05-05T22:51:07.970Z,950.57
2023-05-05T22:52:07.979Z,950.55
2023-05-05T22:53:07.946Z,950.52
2023-05-05T22:54:07.936Z,950.58
2023-05-05T22:55:08.376Z,950.58
2023-05-05T22:56:07.921Z,950.58
2023-05-05T22:57:07.945Z,950.52
2023-05-05T22:58:07.990Z,950.55
2023-05-05T22:59:07.877Z,950.49
2023-05-05T23:00:07.872Z,950.51
2023-05-05T23:01:07.960Z,950.52
2023-05-05T23:02:07.860Z,950.52
2023-05-05T23:03:07.822Z,950.52
2023-05-05T23:04:07.834Z,950.48
2023-05-05T23:05:08.213Z,950.49
2023-05-05T23:06:07.809Z,950.53
2023-05-05T23:07:07.834Z,950.47
2023-05-05T23:08:07.784Z,950.50
2023-05-05T23:09:07.761Z,950.49
2023-05-05T23:10:07.764Z,950.46
2023-05-05T23:11:07.737Z,950.41
2023-05-05T23:12:07.745Z,950.45
2023-05-05T23:13:07.797Z,950.42
2023-05-05T23:14:07.844Z,950.44
2023-05-05T23:15:08.095Z,950.41
2023-05-05T23:16:07.788Z,950.39
2023-05-05T23:17:07.682Z,950.33
2023-05-05T23:18:07.760Z,950.34
2023-05-05T23:19:07.658Z,950.31
2023-05-05T23:20:07.645Z,950.28
2023-05-05T23:21:07.632Z,950.29
2023-05-05T23:22:07.608Z,950.25
2023-05-05T23:23:07.604Z,950.26
2023-05-05T23:24:07.594Z,950.25
2023-05-05T23:25:08.121Z,950.24
2023-05-05T23:26:07.586Z,950.23
2023-05-05T23:27:07.555Z,950.27
2023-05-05T23:28:07.535Z,950.29
2023-05-05T23:29:07.531Z,950.28
2023-05-05T23:30:07.563Z,950.30
2023-05-05T23:31:07.543Z,950.28
2023-05-05T23:32:07.491Z,950.29
2023-05-05T23:33:07.564Z,950.25
2023-05-05T23:34:07.479Z,950.28
2023-05-05T23:35:07.825Z,950.29
2023-05-05T23:36:07.444Z,950.28
2023-05-05T23:37:07.454Z,950.29
2023-05-05T23:38:07.424Z,950.23
2023-05-05T23:39:07.424Z,950.24
2023-05-05T23:40:07.420Z,950.29
2023-05-05T23:41:07.391Z,950.25
2023-05-05T23:42:07.378Z,950.27
2023-05-05T23:43:07.379Z,950.23
2023-05-05T23:44:07.399Z,950.21
2023-05-05T23:45:07.458Z,950.22
2023-05-05T23:46:07.455Z,950.20
2023-05-05T23:47:07.367Z,950.19
2023-05-05T23:48:07.351Z,950.12
2023-05-05T23:49:07.324Z,950.11
2023-05-05T23:50:07.284Z,950.09
2023-05-05T23:51:07.278Z,950.10
2023-05-05T23:52:07.283Z,950.03
2023-05-05T23:53:07.250Z,950.07
2023-05-05T23:54:07.300Z,950.03
2023-05-05T23:55:07.516Z,949.99
2023-05-05T23:56:07.233Z,950.02
2023-05-05T23:57:07.223Z,950.00
2023-05-05T23:58:07.188Z,949.99
2023-05-05T23:59:07.178Z,950.00
